createdAt,value
2018-11-21T00:02:35.775Z,5.70
2018-11-21T00:05:24.117Z,6.60
2018-11-21T00:08:12.485Z,5.62
2018-11-21T00:14:08.910Z,6.95
2018-11-21T00:16:57.253Z,5.55
2018-11-21T00:19:45.852Z,5.08
2018-11-21T00:22:34.204Z,5.85
2018-11-21T00:25:22.540Z,5.90
2018-11-21T00:28:11.161Z,7.22
2018-11-21T00:30:59.503Z,7.05
2018-11-21T00:33:48.109Z,7.70
2018-11-21T00:36:36.682Z,6.00
2018-11-21T00:39:25.277Z,7.00
2018-11-21T00:42:13.891Z,7.87
2018-11-21T00:45:02.484Z,6.12
2018-11-21T00:47:50.820Z,6.95
2018-11-21T00:50:39.172Z,6.35
2018-11-21T00:53:27.852Z,6.62
2018-11-21T00:56:16.211Z,7.50
2018-11-21T00:59:04.566Z,6.45
2018-11-21T01:04:47.995Z,5.42
2018-11-21T01:07:36.605Z,6.70
2018-11-21T01:10:24.986Z,7.62
2018-11-21T01:13:13.311Z,6.03
2018-11-21T01:16:01.942Z,7.30
2018-11-21T01:18:50.280Z,6.12
2018-11-21T01:24:32.957Z,5.90
2018-11-21T01:27:21.601Z,5.22
2018-11-21T01:30:09.957Z,6.72
2018-11-21T01:36:06.491Z,4.72
2018-11-21T01:38:54.839Z,7.62
2018-11-21T01:41:43.416Z,7.62
2018-11-21T01:44:31.772Z,7.12
2018-11-21T01:47:20.121Z,7.42
2018-11-21T01:50:08.953Z,5.75
2018-11-21T01:52:57.306Z,5.35
2018-11-21T01:55:38.225Z,7.97
2018-11-21T01:58:19.144Z,7.70
2018-11-21T02:01:00.182Z,6.42
2018-11-21T02:03:41.269Z,7.78
2018-11-21T02:06:22.513Z,6.75
2018-11-21T02:09:05.372Z,6.55
2018-11-21T02:11:46.650Z,5.08
2018-11-21T02:14:27.965Z,6.67
2018-11-21T02:17:09.221Z,6.90
2018-11-21T02:19:49.973Z,6.37
2018-11-21T02:22:31.336Z,7.25
2018-11-21T02:25:12.544Z,5.35
2018-11-21T02:27:53.275Z,6.78
2018-11-21T02:30:34.223Z,6.37
2018-11-21T02:33:15.404Z,5.85
2018-11-21T02:35:56.114Z,8.35
2018-11-21T02:38:37.369Z,7.20
2018-11-21T02:41:17.807Z,7.30
2018-11-21T02:43:59.038Z,8.15
2018-11-21T02:46:40.111Z,8.80
2018-11-21T02:49:21.600Z,7.25
2018-11-21T02:52:02.604Z,7.30
2018-11-21T02:54:43.996Z,6.00
2018-11-21T02:57:29.584Z,6.42
2018-11-21T03:00:10.489Z,6.53
2018-11-21T03:02:51.816Z,5.55
2018-11-21T03:05:33.233Z,5.97
2018-11-21T03:08:14.349Z,6.67
2018-11-21T03:10:55.621Z,7.05
2018-11-21T03:13:36.798Z,6.22
2018-11-21T03:16:17.854Z,5.80
2018-11-21T03:18:58.401Z,7.35
2018-11-21T03:21:39.532Z,6.08
2018-11-21T03:24:20.905Z,7.03
2018-11-21T03:27:02.255Z,6.50
2018-11-21T03:29:43.585Z,8.38
2018-11-21T03:32:24.826Z,6.95
2018-11-21T03:35:06.127Z,6.00
2018-11-21T03:37:47.006Z,6.15
2018-11-21T03:40:28.381Z,8.30
2018-11-21T03:43:09.565Z,7.80
2018-11-21T03:45:50.741Z,6.55
2018-11-21T03:48:31.213Z,5.50
2018-11-21T03:51:12.445Z,7.15
2018-11-21T03:53:54.040Z,7.50
2018-11-21T03:56:35.825Z,7.25
2018-11-21T03:59:16.893Z,7.30
2018-11-21T04:01:58.134Z,8.05
2018-11-21T04:04:39.750Z,9.78
2018-11-21T04:07:20.680Z,6.35
2018-11-21T04:10:01.911Z,8.00
2018-11-21T04:12:43.144Z,7.25
2018-11-21T04:15:24.398Z,6.62
2018-11-21T04:18:05.317Z,7.33
2018-11-21T04:20:46.469Z,7.50
2018-11-21T04:23:26.999Z,7.30
2018-11-21T04:26:07.765Z,9.00
2018-11-21T04:28:49.215Z,7.40
2018-11-21T04:31:30.082Z,8.33
2018-11-21T04:34:11.442Z,5.97
2018-11-21T04:36:52.263Z,6.80
2018-11-21T04:39:33.473Z,8.45
2018-11-21T04:42:14.529Z,7.00
2018-11-21T04:44:55.965Z,7.20
2018-11-21T04:47:37.053Z,5.05
2018-11-21T04:50:18.328Z,9.70
2018-11-21T04:52:59.651Z,6.60
2018-11-21T04:55:40.817Z,6.90
2018-11-21T04:58:22.128Z,8.30
2018-11-21T05:01:03.261Z,7.65
2018-11-21T05:03:43.888Z,8.48
2018-11-21T05:06:25.193Z,8.15
2018-11-21T05:09:06.188Z,7.80
2018-11-21T05:11:46.780Z,8.20
2018-11-21T05:14:28.120Z,9.65
2018-11-21T05:17:09.320Z,4.72
2018-11-21T05:19:50.302Z,7.67
2018-11-21T05:22:31.200Z,5.40
2018-11-21T05:25:12.369Z,5.60
2018-11-21T05:27:53.314Z,4.50
2018-11-21T05:30:34.498Z,7.12
2018-11-21T05:33:15.809Z,6.03
2018-11-21T05:35:57.315Z,7.58
2018-11-21T05:38:38.606Z,6.85
2018-11-21T05:41:20.120Z,7.53
2018-11-21T05:44:01.656Z,7.20
2018-11-21T05:46:42.310Z,6.05
2018-11-21T05:49:23.645Z,5.65
2018-11-21T05:52:05.049Z,6.70
2018-11-21T05:54:46.317Z,6.50
2018-11-21T05:57:27.018Z,7.40
2018-11-21T06:00:08.653Z,6.28
2018-11-21T06:02:49.981Z,6.30
2018-11-21T06:05:31.532Z,7.85
2018-11-21T06:08:12.344Z,5.60
2018-11-21T06:10:53.339Z,7.97
2018-11-21T06:13:34.605Z,6.05
2018-11-21T06:16:15.993Z,7.55
2018-11-21T06:18:56.812Z,7.72
2018-11-21T06:21:38.333Z,5.97
2018-11-21T06:24:19.481Z,7.50
2018-11-21T06:27:01.863Z,6.80
2018-11-21T06:29:42.932Z,7.05
2018-11-21T06:32:23.763Z,7.50
2018-11-21T06:35:05.240Z,4.72
2018-11-21T06:37:45.843Z,9.88
2018-11-21T06:40:27.024Z,7.22
2018-11-21T06:43:08.273Z,7.10
2018-11-21T06:45:49.246Z,8.35
2018-11-21T06:48:30.500Z,6.35
2018-11-21T06:51:11.916Z,6.33
2018-11-21T06:53:53.296Z,6.95
2018-11-21T06:56:34.682Z,8.08
2018-11-21T06:59:15.354Z,6.03
2018-11-21T07:01:56.748Z,4.55
2018-11-21T07:04:37.401Z,7.08
2018-11-21T07:07:18.682Z,7.53
2018-11-21T07:09:59.916Z,6.53
2018-11-21T07:12:41.068Z,6.65
2018-11-21T07:15:22.370Z,6.40
2018-11-21T07:18:03.262Z,6.33
2018-11-21T07:20:44.760Z,6.70
2018-11-21T07:23:26.319Z,7.10
2018-11-21T07:26:07.148Z,6.55
2018-11-21T07:28:48.572Z,6.47
2018-11-21T07:31:29.860Z,7.97
2018-11-21T07:34:11.125Z,5.85
2018-11-21T07:36:52.667Z,6.85
2018-11-21T07:39:34.036Z,6.85
2018-11-21T07:42:15.438Z,8.25
2018-11-21T07:44:56.628Z,7.00
2018-11-21T07:47:38.299Z,6.35
2018-11-21T07:50:20.945Z,6.60
2018-11-21T07:53:02.130Z,6.95
2018-11-21T07:55:43.389Z,6.55
2018-11-21T07:58:25.345Z,6.58
2018-11-21T08:01:24.875Z,6.25
2018-11-21T08:04:30.609Z,5.90
2018-11-21T08:07:20.708Z,7.25
2018-11-21T08:10:21.357Z,7.90
2018-11-21T08:13:28.502Z,7.12
2018-11-21T08:19:58.787Z,6.95
2018-11-21T08:23:06.159Z,9.00
2018-11-21T08:26:13.289Z,5.33
2018-11-21T08:29:01.633Z,5.97
2018-11-21T08:31:49.976Z,7.12
2018-11-21T08:34:38.333Z,5.67
2018-11-21T08:37:26.668Z,6.40
2018-11-21T08:40:14.997Z,5.85
2018-11-21T08:43:03.536Z,6.40
2018-11-21T08:45:51.930Z,6.28
2018-11-21T08:48:40.285Z,5.33
2018-11-21T08:51:28.615Z,6.33
2018-11-21T08:54:17.265Z,7.78
2018-11-21T08:57:06.012Z,6.72
2018-11-21T08:59:54.387Z,5.70
2018-11-21T09:02:42.882Z,7.65
2018-11-21T09:05:31.350Z,6.65
2018-11-21T09:08:19.708Z,7.30
2018-11-21T09:11:08.064Z,5.65
2018-11-21T09:13:56.419Z,5.08
2018-11-21T09:16:44.748Z,6.20
2018-11-21T09:19:33.107Z,6.53
2018-11-21T09:22:21.449Z,5.67
2018-11-21T09:25:10.502Z,6.42
2018-11-21T09:27:58.860Z,6.22
2018-11-21T09:30:47.466Z,6.75
2018-11-21T09:33:36.314Z,5.65
2018-11-21T09:36:24.657Z,5.53
2018-11-21T09:39:13.725Z,6.87
2018-11-21T09:42:21.130Z,5.72
2018-11-21T09:45:11.410Z,6.20
2018-11-21T09:47:58.997Z,5.70
2018-11-21T09:50:47.629Z,6.00
2018-11-21T09:53:35.980Z,6.10
2018-11-21T09:56:24.325Z,5.35
2018-11-21T09:59:13.080Z,6.83
2018-11-21T10:02:20.453Z,5.42
2018-11-21T10:05:09.068Z,4.87
2018-11-21T10:08:01.422Z,7.35
2018-11-21T10:10:50.122Z,5.10
2018-11-21T10:13:38.452Z,4.58
2018-11-21T10:16:27.172Z,8.20
2018-11-21T10:19:15.520Z,5.05
2018-11-21T10:22:03.859Z,5.60
2018-11-21T10:24:52.528Z,6.45
2018-11-21T10:27:40.869Z,6.83
2018-11-21T10:30:29.234Z,6.22
2018-11-21T10:33:17.903Z,4.95
2018-11-21T10:36:06.294Z,5.83
2018-11-21T10:38:54.627Z,4.87
2018-11-21T10:41:42.985Z,5.28
2018-11-21T10:47:39.502Z,4.97
2018-11-21T10:50:27.869Z,5.92
2018-11-21T10:53:16.222Z,8.28
2018-11-21T10:56:04.590Z,4.40
2018-11-21T10:58:53.247Z,4.42
2018-11-21T11:02:00.658Z,5.30
2018-11-21T11:05:07.829Z,5.45
2018-11-21T11:08:10.036Z,4.47
2018-11-21T11:11:17.184Z,4.72
2018-11-21T11:14:24.479Z,4.90
2018-11-21T11:17:31.619Z,4.95
2018-11-21T11:20:38.770Z,4.72
2018-11-21T11:23:41.624Z,5.00
2018-11-21T11:26:48.801Z,4.17
2018-11-21T11:29:55.930Z,4.50
2018-11-21T11:33:03.093Z,6.35
2018-11-21T11:36:10.229Z,5.35
2018-11-21T11:39:17.367Z,6.00
2018-11-21T11:42:24.612Z,5.15
2018-11-21T11:45:31.764Z,5.60
2018-11-21T11:48:38.919Z,5.08
2018-11-21T11:51:46.043Z,5.40
2018-11-21T11:54:53.175Z,4.40
2018-11-21T11:58:00.347Z,3.92
2018-11-21T12:01:07.493Z,3.90
2018-11-21T12:04:14.649Z,3.55
2018-11-21T12:07:21.783Z,4.97
2018-11-21T12:10:28.907Z,4.28
2018-11-21T12:13:36.060Z,4.55
2018-11-21T12:16:43.202Z,4.15
2018-11-21T12:19:50.357Z,4.53
2018-11-21T12:22:57.517Z,4.30
2018-11-21T12:26:10.399Z,4.40
2018-11-21T12:29:11.778Z,5.08
2018-11-21T12:32:18.932Z,4.70
2018-11-21T12:35:27.081Z,3.90
2018-11-21T12:38:27.984Z,2.75
2018-11-21T12:44:34.424Z,4.45
2018-11-21T12:47:34.206Z,4.30
2018-11-21T12:50:34.401Z,4.87
2018-11-21T12:53:34.966Z,4.03
2018-11-21T12:56:29.148Z,4.83
2018-11-21T12:59:30.398Z,4.60
2018-11-21T13:02:36.348Z,4.08
2018-11-21T13:05:26.197Z,4.25
2018-11-21T13:08:20.185Z,4.45
2018-11-21T13:11:20.746Z,4.65
2018-11-21T13:14:21.466Z,4.50
2018-11-21T13:20:28.550Z,4.72
2018-11-21T13:26:38.895Z,3.77
2018-11-21T13:29:38.469Z,3.80
2018-11-21T13:35:41.803Z,3.90
2018-11-21T13:41:46.522Z,4.25
2018-11-21T13:44:37.216Z,4.17
2018-11-21T13:50:44.769Z,4.70
2018-11-21T13:53:40.070Z,4.75
2018-11-21T13:56:21.660Z,4.30
2018-11-21T13:59:02.423Z,3.95
2018-11-21T14:01:43.710Z,4.03
2018-11-21T14:04:24.837Z,4.55
2018-11-21T14:07:05.797Z,5.00
2018-11-21T14:09:46.476Z,4.08
2018-11-21T14:12:27.508Z,3.92
2018-11-21T14:15:08.499Z,4.83
2018-11-21T14:17:49.236Z,4.42
2018-11-21T14:20:30.683Z,4.25
2018-11-21T14:23:11.921Z,4.62
2018-11-21T14:25:53.140Z,5.95
2018-11-21T14:28:34.543Z,3.20
2018-11-21T14:31:15.361Z,4.03
2018-11-21T14:33:55.960Z,3.70
2018-11-21T14:36:36.906Z,3.67
2018-11-21T14:39:18.268Z,3.80
2018-11-21T14:41:59.904Z,4.83
2018-11-21T14:44:41.292Z,3.60
2018-11-21T14:47:20.676Z,4.75
2018-11-21T14:50:28.065Z,3.92
2018-11-21T14:53:16.645Z,4.30
2018-11-21T14:56:04.960Z,3.47
2018-11-21T14:58:53.613Z,4.75
2018-11-21T15:01:42.283Z,3.70
2018-11-21T15:04:30.613Z,3.85
2018-11-21T15:07:18.956Z,4.25
2018-11-21T15:10:07.538Z,4.95
2018-11-21T15:12:56.132Z,3.95
2018-11-21T15:15:45.004Z,3.80
2018-11-21T15:18:33.313Z,3.52
2018-11-21T15:21:21.894Z,3.72
2018-11-21T15:24:10.531Z,3.65
2018-11-21T15:26:59.168Z,3.87
2018-11-21T15:29:48.274Z,3.45
2018-11-21T15:32:36.611Z,3.17
2018-11-21T15:35:25.131Z,4.20
2018-11-21T15:38:13.763Z,4.15
2018-11-21T15:41:02.068Z,3.30
2018-11-21T15:43:50.388Z,3.00
2018-11-21T15:46:45.414Z,4.60
2018-11-21T15:49:27.289Z,3.30
2018-11-21T15:52:15.643Z,4.12
2018-11-21T15:55:03.978Z,4.90
2018-11-21T15:57:52.308Z,3.45
2018-11-21T16:00:40.947Z,2.95
2018-11-21T16:03:29.285Z,2.92
2018-11-21T16:06:17.840Z,3.98
2018-11-21T16:09:08.283Z,4.70
2018-11-21T16:11:56.964Z,3.40
2018-11-21T16:14:45.306Z,3.45
2018-11-21T16:17:34.015Z,4.28
2018-11-21T16:20:22.638Z,3.92
2018-11-21T16:23:10.961Z,4.97
2018-11-21T16:25:59.299Z,3.12
2018-11-21T16:28:47.955Z,2.75
2018-11-21T16:31:36.852Z,3.35
2018-11-21T16:34:25.195Z,4.00
2018-11-21T16:37:13.504Z,3.52
2018-11-21T16:40:01.972Z,3.33
2018-11-21T16:42:50.735Z,3.22
2018-11-21T16:45:41.580Z,4.08
2018-11-21T16:48:29.899Z,3.15
2018-11-21T16:51:18.247Z,2.50
2018-11-21T16:54:06.564Z,3.80
2018-11-21T16:56:55.152Z,3.52
2018-11-21T16:59:43.833Z,3.70
2018-11-21T17:02:32.499Z,3.10
2018-11-21T17:08:29.736Z,3.40
2018-11-21T17:11:18.068Z,4.20
2018-11-21T17:14:06.516Z,3.70
2018-11-21T17:16:54.835Z,3.90
2018-11-21T17:19:43.147Z,3.52
2018-11-21T17:22:31.488Z,4.42
2018-11-21T17:25:21.348Z,4.03
2018-11-21T17:28:09.828Z,3.62
2018-11-21T17:30:58.436Z,4.10
2018-11-21T17:33:52.038Z,3.58
2018-11-21T17:36:35.428Z,3.55
2018-11-21T17:39:24.147Z,4.22
2018-11-21T17:42:12.452Z,4.30
2018-11-21T17:45:00.874Z,3.37
2018-11-21T17:47:49.523Z,3.62
2018-11-21T17:50:37.861Z,3.27
2018-11-21T17:56:20.797Z,3.52
2018-11-21T17:59:09.437Z,3.15
2018-11-21T18:01:57.764Z,2.55
2018-11-21T18:04:46.395Z,3.30
2018-11-21T18:07:34.732Z,3.95
2018-11-21T18:10:24.571Z,4.17
2018-11-21T18:13:12.876Z,5.85
2018-11-21T18:16:01.189Z,3.70
2018-11-21T18:21:44.623Z,3.33
2018-11-21T18:24:32.937Z,4.67
2018-11-21T18:27:21.242Z,4.08
2018-11-21T18:33:04.499Z,3.20
2018-11-21T18:35:53.092Z,3.42
2018-11-21T18:38:49.027Z,2.45
2018-11-21T18:41:37.364Z,3.85
2018-11-21T18:44:25.700Z,4.35
2018-11-21T18:47:14.035Z,4.30
2018-11-21T18:50:02.344Z,2.92
2018-11-21T18:52:52.242Z,4.35
2018-11-21T18:55:41.744Z,3.33
2018-11-21T18:58:49.355Z,5.10
2018-11-21T19:01:37.946Z,4.67
2018-11-21T19:04:26.608Z,4.80
2018-11-21T19:07:14.923Z,4.30
2018-11-21T19:10:03.751Z,4.37
2018-11-21T19:12:52.396Z,3.92
2018-11-21T19:15:40.984Z,2.90
2018-11-21T19:18:29.644Z,3.95
2018-11-21T19:21:18.524Z,4.15
2018-11-21T19:24:06.849Z,2.85
2018-11-21T19:26:55.743Z,3.60
2018-11-21T19:29:44.320Z,3.40
2018-11-21T19:32:33.064Z,3.33
2018-11-21T19:35:21.392Z,3.92
2018-11-21T19:38:09.715Z,4.00
2018-11-21T19:40:58.276Z,3.65
2018-11-21T19:46:54.483Z,3.00
2018-11-21T19:49:43.120Z,4.65
2018-11-21T19:52:31.717Z,3.87
2018-11-21T19:55:38.874Z,5.00
2018-11-21T19:58:27.181Z,4.80
2018-11-21T20:01:15.840Z,3.90
2018-11-21T20:04:04.178Z,4.05
2018-11-21T20:09:46.728Z,4.20
2018-11-21T20:12:39.801Z,3.70
2018-11-21T20:15:25.183Z,3.70
2018-11-21T20:18:13.783Z,3.65
2018-11-21T20:21:02.095Z,3.67
2018-11-21T20:23:50.432Z,4.47
2018-11-21T20:29:32.663Z,4.55
2018-11-21T20:32:21.382Z,3.30
2018-11-21T20:35:10.256Z,3.67
2018-11-21T20:37:58.887Z,3.50
2018-11-21T20:40:47.530Z,3.95
2018-11-21T20:43:36.141Z,3.17
2018-11-21T20:49:32.343Z,2.65
2018-11-21T20:52:20.661Z,3.50
2018-11-21T20:55:10.118Z,3.45
2018-11-21T20:57:58.739Z,3.83
2018-11-21T21:00:47.046Z,2.83
2018-11-21T21:03:35.377Z,2.75
2018-11-21T21:06:23.687Z,3.02
2018-11-21T21:09:14.080Z,4.47
2018-11-21T21:12:02.377Z,4.15
2018-11-21T21:14:50.729Z,3.95
2018-11-21T21:17:39.780Z,3.33
2018-11-21T21:23:36.615Z,2.70
2018-11-21T21:26:24.923Z,2.95
2018-11-21T21:29:13.250Z,4.22
2018-11-21T21:32:01.925Z,4.25
2018-11-21T21:34:50.286Z,3.17
2018-11-21T21:37:38.604Z,3.42
2018-11-21T21:40:26.943Z,3.42
2018-11-21T21:43:15.291Z,3.98
2018-11-21T21:46:07.798Z,3.30
2018-11-21T21:48:52.243Z,3.05
2018-11-21T21:51:40.576Z,4.60
2018-11-21T21:54:28.917Z,4.70
2018-11-21T21:57:17.237Z,5.00
2018-11-21T22:00:08.603Z,5.28
2018-11-21T22:02:57.945Z,4.10
2018-11-21T22:05:46.287Z,3.90
2018-11-21T22:08:34.910Z,3.05
2018-11-21T22:11:23.241Z,4.33
2018-11-21T22:14:11.817Z,5.40
2018-11-21T22:17:00.404Z,4.58
2018-11-21T22:19:49.262Z,6.10
2018-11-21T22:22:37.577Z,4.75
2018-11-21T22:25:26.158Z,4.72
2018-11-21T22:28:14.474Z,4.10
2018-11-21T22:31:03.135Z,3.67
2018-11-21T22:33:51.801Z,3.70
2018-11-21T22:36:40.112Z,4.00
2018-11-21T22:39:28.721Z,5.20
2018-11-21T22:42:17.292Z,5.15
2018-11-21T22:45:06.462Z,14.18
2018-11-21T22:47:55.050Z,14.55
2018-11-21T22:50:43.710Z,11.65
2018-11-21T22:56:39.909Z,5.37
2018-11-21T22:59:28.516Z,5.12
2018-11-21T23:02:17.185Z,4.03
2018-11-21T23:05:05.904Z,3.90
2018-11-21T23:07:54.238Z,3.80
2018-11-21T23:10:42.579Z,3.10
2018-11-21T23:13:30.902Z,4.35
2018-11-21T23:16:19.748Z,6.37
2018-11-21T23:19:08.305Z,3.10
2018-11-21T23:21:49.573Z,4.25
2018-11-21T23:24:30.563Z,4.00
2018-11-21T23:27:12.061Z,3.40
2018-11-21T23:29:52.973Z,4.72
2018-11-21T23:32:33.448Z,4.22
2018-11-21T23:35:15.289Z,5.03
2018-11-21T23:37:56.995Z,4.37
2018-11-21T23:40:38.037Z,3.65
2018-11-21T23:43:19.484Z,3.72
2018-11-21T23:46:00.477Z,3.80
2018-11-21T23:48:41.942Z,4.78
2018-11-21T23:51:22.536Z,3.98
2018-11-21T23:54:02.244Z,3.72
2018-11-21T23:59:45.587Z,5.35
